Time;durP1;ratioP1;P1;durP2;ratioP2;P2;SDS_P1;SDS_P2;PMS_P1;PMS_P2;Temp;Humidity;BMP_temperature;BMP_pressure;BME280_temperature;BME280_humidity;BME280_pressure;Samples;Min_cycle;Max_cycle;Signal;HPM_P1;HPM_P2
2023/08/09 00:02:11;;;;;;;1.90;1.80;;;;;;;12.88;78.39;99518.18;218374;1257;139650;-71
2023/08/09 00:07:16;;;;;;;2.10;1.90;;;;;;;12.90;78.37;99520.98;218160;1260;140525;-68
2023/08/09 00:12:21;;;;;;;1.30;1.20;;;;;;;12.91;78.45;99524.16;217888;1256;142322;-67
2023/08/09 00:17:26;;;;;;;1.30;1.20;;;;;;;12.91;78.56;99525.97;219998;1256;141808;-68
2023/08/09 00:22:31;;;;;;;5.60;2.10;;;;;;;12.88;78.50;99527.83;219038;1257;140163;-67
2023/08/09 00:27:36;;;;;;;2.40;1.60;;;;;;;12.84;78.45;99529.45;219482;1256;141391;-70
2023/08/09 00:32:42;;;;;;;3.40;2.20;;;;;;;12.87;78.91;99537.55;219949;1256;142139;-70
2023/08/09 00:37:46;;;;;;;2.10;2.00;;;;;;;12.92;78.90;99542.46;220366;1257;139779;-69
2023/08/09 00:42:51;;;;;;;3.50;2.30;;;;;;;12.97;78.87;99544.65;219852;1256;141124;-69
2023/08/09 00:47:57;;;;;;;1.70;1.50;;;;;;;12.98;78.77;99544.44;220186;1256;141148;-68
2023/08/09 00:53:02;;;;;;;5.70;2.00;;;;;;;12.94;78.72;99548.85;219629;1256;140112;-69
2023/08/09 00:58:07;;;;;;;2.40;1.40;;;;;;;12.94;78.70;99551.15;218551;1256;139887;-68
2023/08/09 01:03:14;;;;;;;1.70;1.60;;;;;;;12.89;78.62;99540.83;218633;1256;140754;-68
2023/08/09 01:08:27;;;;;;;4.70;2.10;;;;;;;12.77;78.31;99532.87;218671;1257;140272;-68
2023/08/09 01:13:32;;;;;;;3.00;1.80;;;;;;;12.59;78.57;99539.11;217819;1259;140360;-68
2023/08/09 01:18:42;;;;;;;2.20;2.00;;;;;;;12.53;78.88;99547.40;219165;1257;139657;-70
2023/08/09 01:23:48;;;;;;;4.10;1.90;;;;;;;12.51;79.19;99549.05;217613;1258;140106;-70
2023/08/09 01:28:54;;;;;;;2.80;2.40;;;;;;;12.46;79.05;99552.95;218534;1257;139475;-69
2023/08/09 01:34:00;;;;;;;1.80;1.70;;;;;;;12.41;79.02;99559.63;218895;1256;141832;-69
2023/08/09 01:39:11;;;;;;;2.50;2.30;;;;;;;12.28;78.81;99558.40;219583;1256;210829;-69
2023/08/09 01:44:15;;;;;;;2.80;2.00;;;;;;;12.15;78.98;99552.86;218952;1256;140603;-69
2023/08/09 01:49:22;;;;;;;3.10;2.10;;;;;;;12.07;79.61;99551.48;218154;1259;139807;-70
2023/08/09 01:54:27;;;;;;;2.00;1.80;;;;;;;12.02;79.63;99544.05;218664;1256;139854;-69
2023/08/09 01:59:32;;;;;;;3.80;2.60;;;;;;;12.00;80.22;99544.88;219155;1257;139409;-69
2023/08/09 02:04:37;;;;;;;2.50;2.40;;;;;;;12.01;80.67;99542.54;219246;1256;141157;-69
2023/08/09 02:09:43;;;;;;;2.50;2.30;;;;;;;12.05;80.81;99541.41;217967;1256;141439;-69
2023/08/09 02:14:48;;;;;;;2.50;2.40;;;;;;;12.08;81.22;99551.60;219519;1256;246543;-70
2023/08/09 02:19:53;;;;;;;3.30;3.00;;;;;;;12.11;81.25;99551.11;218869;1256;140659;-69
2023/08/09 02:24:59;;;;;;;3.40;3.20;;;;;;;12.11;81.53;99555.05;220091;1256;140952;-70
2023/08/09 02:30:05;;;;;;;5.00;2.80;;;;;;;12.13;81.70;99554.06;220388;1256;140951;-70
2023/08/09 02:35:10;;;;;;;6.50;2.80;;;;;;;12.14;81.46;99540.46;220568;1256;141028;-71
2023/08/09 02:40:15;;;;;;;2.10;2.00;;;;;;;12.20;81.31;99535.71;220404;1256;140518;-71
2023/08/09 02:45:21;;;;;;;2.60;2.20;;;;;;;12.15;81.09;99536.09;220201;1256;140220;-72
2023/08/09 02:50:25;;;;;;;3.20;2.80;;;;;;;12.09;80.79;99537.31;218440;1256;140087;-71
2023/08/09 02:55:31;;;;;;;2.30;2.20;;;;;;;11.97;80.78;99546.64;218615;1256;139901;-71
2023/08/09 03:00:36;;;;;;;2.30;2.10;;;;;;;11.89;81.05;99555.32;218128;1256;640095;-70
2023/08/09 03:05:40;;;;;;;3.00;2.00;;;;;;;11.87;81.11;99560.42;218920;1256;140659;-72
2023/08/09 03:10:46;;;;;;;3.10;1.70;;;;;;;11.87;81.34;99560.64;218477;1257;140789;-73
2023/08/09 03:15:54;;;;;;;4.30;2.40;;;;;;;11.83;81.31;99564.33;219139;1257;140917;-73
2023/08/09 03:20:58;;;;;;;3.60;3.30;;;;;;;11.78;81.54;99571.30;218216;1257;140862;-69
2023/08/09 03:26:04;;;;;;;2.50;2.30;;;;;;;11.75;81.51;99572.79;218405;1256;139665;-71
2023/08/09 03:31:09;;;;;;;2.20;2.00;;;;;;;11.69;81.80;99577.21;218934;1256;139839;-70
2023/08/09 03:36:14;;;;;;;5.40;2.60;;;;;;;11.66;82.11;99584.06;218571;1256;140485;-69
2023/08/09 03:41:18;;;;;;;4.80;2.40;;;;;;;11.71;82.12;99590.66;218567;1256;141238;-68
2023/08/09 03:46:23;;;;;;;2.50;2.30;;;;;;;11.72;81.91;99591.21;218492;1256;139513;-67
2023/08/09 03:51:28;;;;;;;2.60;2.10;;;;;;;11.74;81.85;99589.05;218986;1257;140139;-68
2023/08/09 03:56:33;;;;;;;2.50;2.20;;;;;;;11.74;82.14;99590.19;219535;1257;140034;-69
2023/08/09 04:01:40;;;;;;;3.30;3.10;;;;;;;11.75;82.55;99590.50;218440;1257;140651;-68
2023/08/09 04:06:47;;;;;;;3.10;2.80;;;;;;;11.79;82.75;99597.06;217804;1257;139873;-70
2023/08/09 04:11:52;;;;;;;4.70;3.40;;;;;;;11.88;82.92;99598.63;219773;1256;140738;-71
2023/08/09 04:16:57;;;;;;;2.60;2.40;;;;;;;12.18;82.83;99592.02;218098;1257;139826;-70
2023/08/09 04:22:03;;;;;;;2.70;2.20;;;;;;;12.32;82.83;99592.82;217523;1256;140921;-70
2023/08/09 04:27:06;;;;;;;3.30;2.80;;;;;;;12.48;82.88;99591.90;219258;1256;208078;-71
2023/08/09 04:32:10;;;;;;;4.10;3.10;;;;;;;12.60;82.46;99584.05;220515;1256;140792;-71
2023/08/09 04:37:15;;;;;;;3.20;2.40;;;;;;;12.83;82.69;99578.77;220491;1255;140431;-69
2023/08/09 04:42:20;;;;;;;3.20;2.90;;;;;;;13.04;82.28;99578.33;219249;1257;140543;-68
2023/08/09 04:47:25;;;;;;;2.80;2.50;;;;;;;13.24;82.16;99580.27;218873;1256;141085;-68
2023/08/09 04:52:31;;;;;;;2.40;2.20;;;;;;;13.48;82.16;99580.46;218971;1256;140245;-68
2023/08/09 04:57:35;;;;;;;2.90;2.50;;;;;;;13.81;82.27;99590.42;217974;1256;140004;-70
2023/08/09 05:02:41;;;;;;;2.10;2.00;;;;;;;13.96;81.57;99598.28;219654;1255;141411;-70
2023/08/09 05:07:46;;;;;;;4.10;2.70;;;;;;;13.97;81.39;99581.58;217813;1259;140648;-71
2023/08/09 05:12:51;;;;;;;2.70;1.90;;;;;;;13.95;81.14;99569.66;217815;1256;140672;-73
2023/08/09 05:17:57;;;;;;;3.70;3.20;;;;;;;14.00;81.06;99573.34;218597;1256;140509;-72
2023/08/09 05:23:03;;;;;;;2.50;2.30;;;;;;;14.34;80.51;99573.73;217904;1256;140550;-72
2023/08/09 05:28:08;;;;;;;5.60;2.60;;;;;;;15.08;79.61;99575.35;218718;1256;141062;-70
2023/08/09 05:33:13;;;;;;;2.80;2.60;;;;;;;15.22;79.27;99575.98;217919;1256;141091;-69
2023/08/09 05:38:19;;;;;;;4.10;2.20;;;;;;;15.98;77.95;99581.09;218824;1256;141168;-70
2023/08/09 05:43:24;;;;;;;2.70;2.10;;;;;;;16.85;76.57;99584.80;217935;1257;140578;-69
2023/08/09 05:48:29;;;;;;;2.90;2.60;;;;;;;19.95;71.88;99582.39;218809;1255;140624;-70
2023/08/09 05:53:35;;;;;;;4.10;2.40;;;;;;;21.85;69.75;99580.82;218151;1256;140010;-69
2023/08/09 05:58:39;;;;;;;2.50;2.30;;;;;;;20.99;68.72;99579.11;218281;1257;141233;-69
2023/08/09 06:03:44;;;;;;;5.20;2.20;;;;;;;20.43;68.57;99574.61;218493;1256;140295;-68
2023/08/09 06:08:50;;;;;;;3.40;1.90;;;;;;;20.11;68.39;99576.56;218609;1256;140453;-70
2023/08/09 06:13:55;;;;;;;7.60;2.40;;;;;;;19.61;67.83;99576.90;220393;1255;140171;-70
2023/08/09 06:19:00;;;;;;;5.60;1.90;;;;;;;19.13;67.85;99582.25;220061;1256;140408;-70
2023/08/09 06:24:05;;;;;;;7.00;2.80;;;;;;;18.61;67.35;99576.75;219565;1256;140559;-69
2023/08/09 06:29:10;;;;;;;2.20;2.00;;;;;;;18.26;68.31;99576.17;219926;1256;140927;-70
2023/08/09 06:34:15;;;;;;;1.80;1.70;;;;;;;18.29;68.58;99580.94;220443;1256;140775;-68
2023/08/09 06:39:21;;;;;;;3.10;1.90;;;;;;;18.32;68.46;99585.38;219864;1256;139966;-69
2023/08/09 06:44:26;;;;;;;1.60;1.50;;;;;;;18.41;68.17;99595.56;219334;1256;140519;-69
2023/08/09 06:49:29;;;;;;;3.70;1.90;;;;;;;18.52;67.78;99593.64;220240;1256;140409;-67
2023/08/09 06:54:35;;;;;;;11.40;2.30;;;;;;;19.16;67.12;99593.33;219181;1256;141258;-69
2023/08/09 06:59:40;;;;;;;1.70;1.30;;;;;;;20.13;65.91;99594.63;219017;1257;140879;-69
2023/08/09 07:04:45;;;;;;;1.60;1.50;;;;;;;21.62;64.47;99595.75;219316;1257;140404;-70
2023/08/09 07:09:52;;;;;;;1.30;1.20;;;;;;;23.41;62.33;99602.89;217648;1256;140325;-72
2023/08/09 07:14:57;;;;;;;3.70;1.20;;;;;;;24.83;60.54;99613.73;218852;1255;138858;-71
2023/08/09 07:20:11;;;;;;;1.70;1.60;;;;;;;25.20;58.24;99620.70;218811;1256;139564;-69
2023/08/09 07:25:16;;;;;;;6.50;1.70;;;;;;;25.36;56.88;99628.23;217588;1259;140159;-70
2023/08/09 07:30:21;;;;;;;2.30;1.90;;;;;;;25.25;55.54;99628.21;218218;1256;140123;-69
2023/08/09 07:35:26;;;;;;;2.20;1.30;;;;;;;24.99;54.83;99621.02;217915;1256;140544;-69
2023/08/09 07:40:31;;;;;;;2.80;1.70;;;;;;;24.56;53.92;99624.56;218848;1256;140186;-69
2023/08/09 07:45:36;;;;;;;1.60;1.50;;;;;;;23.90;54.22;99623.44;218902;1256;140697;-71
2023/08/09 07:50:42;;;;;;;2.00;1.70;;;;;;;24.20;55.01;99619.03;218108;1259;139947;-67
2023/08/09 07:55:47;;;;;;;1.70;1.60;;;;;;;24.26;54.35;99624.10;219131;1256;140666;-69
2023/08/09 08:00:53;;;;;;;2.90;1.80;;;;;;;24.38;54.52;99632.23;218960;1256;140198;-68
2023/08/09 08:05:58;;;;;;;2.60;1.30;;;;;;;24.36;53.90;99638.08;220329;1256;140176;-69
2023/08/09 08:11:03;;;;;;;1.60;1.50;;;;;;;24.29;53.31;99641.08;219230;1256;138601;-69
2023/08/09 08:16:08;;;;;;;2.80;1.20;;;;;;;23.86;52.99;99647.15;220500;1256;139288;-73
2023/08/09 08:21:12;;;;;;;3.90;1.70;;;;;;;23.30;52.79;99649.72;220554;1256;141789;-68
2023/08/09 08:26:18;;;;;;;1.60;1.20;;;;;;;23.17;53.79;99654.00;220400;1256;139635;-70
2023/08/09 08:31:24;;;;;;;4.80;1.90;;;;;;;23.14;53.56;99653.87;220464;1256;139624;-68
2023/08/09 08:36:28;;;;;;;2.40;1.80;;;;;;;22.77;53.26;99657.19;219585;1256;139243;-68
2023/08/09 08:41:34;;;;;;;4.00;2.10;;;;;;;22.53;53.23;99665.59;218478;1257;142905;-67
2023/08/09 08:46:39;;;;;;;2.20;2.10;;;;;;;22.53;53.10;99662.59;219378;1257;139513;-71
2023/08/09 08:51:51;;;;;;;2.40;1.90;;;;;;;22.44;53.32;99655.57;218730;1256;139422;-68
2023/08/09 08:56:55;;;;;;;4.30;1.70;;;;;;;22.71;53.63;99653.95;219385;1257;141367;-70
2023/08/09 09:02:01;;;;;;;5.70;2.30;;;;;;;23.05;53.53;99649.81;218095;1256;139977;-71
2023/08/09 09:07:07;;;;;;;2.50;1.80;;;;;;;23.38;53.16;99643.45;220446;1256;139595;-71
2023/08/09 09:12:20;;;;;;;1.70;1.60;;;;;;;23.60;52.85;99640.30;219680;1255;140671;-68
2023/08/09 09:17:26;;;;;;;3.00;1.90;;;;;;;23.72;52.45;99642.07;218556;1257;139393;-68
2023/08/09 09:22:34;;;;;;;3.60;2.20;;;;;;;23.88;52.24;99643.19;218283;1255;138726;-70
2023/08/09 09:27:42;;;;;;;2.20;2.10;;;;;;;23.82;51.91;99644.66;218077;1257;140213;-66
2023/08/09 09:32:52;;;;;;;3.30;1.80;;;;;;;23.54;51.32;99643.54;217717;1256;140038;-68
2023/08/09 09:38:00;;;;;;;3.80;2.40;;;;;;;23.58;52.06;99641.29;219933;1256;140778;-69
2023/08/09 09:43:06;;;;;;;4.20;2.20;;;;;;;23.57;51.40;99642.25;218641;1257;140241;-69
2023/08/09 09:48:19;;;;;;;2.30;2.00;;;;;;;23.42;51.37;99635.47;219625;1255;139440;-70
2023/08/09 09:53:26;;;;;;;1.70;1.60;;;;;;;23.22;51.11;99637.81;218181;1257;139860;-70
2023/08/09 09:58:31;;;;;;;2.30;1.80;;;;;;;22.84;50.92;99639.73;219768;1257;139479;-68
2023/08/09 10:03:38;;;;;;;1.60;1.50;;;;;;;22.34;50.94;99632.39;219002;1257;141288;-69
2023/08/09 10:08:56;;;;;;;2.40;1.80;;;;;;;21.93;51.30;99636.50;218416;1257;139041;-70
2023/08/09 10:14:08;;;;;;;3.30;2.20;;;;;;;21.60;51.92;99640.20;219543;1257;140372;-69
2023/08/09 10:19:22;;;;;;;2.00;1.80;;;;;;;21.26;52.71;99642.29;218771;1257;139143;-67
2023/08/09 10:24:30;;;;;;;2.90;2.30;;;;;;;20.93;53.37;99644.55;219859;1257;140633;-71
2023/08/09 10:29:35;;;;;;;2.70;2.50;;;;;;;20.64;54.56;99648.05;220385;1257;139541;-68
2023/08/09 10:34:41;;;;;;;4.10;2.90;;;;;;;20.53;55.67;99645.89;219601;1256;139067;-69
2023/08/09 10:40:13;;;;;;;32.20;5.50;;;;;;;20.41;56.50;99648.52;219861;1257;140108;-68
2023/08/09 10:45:22;;;;;;;4.80;3.00;;;;;;;20.27;57.37;99652.84;218994;1257;139795;-69
2023/08/09 10:50:31;;;;;;;;;;;;;;;20.13;58.26;99652.48;220307;1258;140667;-69
2023/08/09 10:55:56;;;;;;;4.40;2.80;;;;;;;19.88;58.95;99657.79;218331;1259;125552;-69
2023/08/09 11:01:01;;;;;;;5.00;2.50;;;;;;;19.72;59.56;99657.80;218857;1257;139882;-68
2023/08/09 11:06:05;;;;;;;61.10;6.40;;;;;;;19.56;60.29;99656.48;218203;1257;139560;-70
2023/08/09 11:11:11;;;;;;;3.20;2.80;;;;;;;19.40;61.07;99655.80;218490;1259;139290;-69
2023/08/09 11:16:16;;;;;;;4.90;3.00;;;;;;;19.26;62.14;99656.50;218764;1257;140344;-69
2023/08/09 11:21:27;;;;;;;4.40;3.00;;;;;;;19.07;62.64;99663.00;218017;1259;139597;-70
2023/08/09 11:26:37;;;;;;;3.40;2.80;;;;;;;18.86;63.35;99667.80;218331;1257;161293;-69
2023/08/09 11:31:46;;;;;;;19.70;4.80;;;;;;;18.65;63.97;99668.44;219093;1257;141335;-71
2023/08/09 11:36:56;;;;;;;5.10;2.30;;;;;;;18.43;64.23;99673.38;217771;1257;140012;-70
2023/08/09 11:42:00;;;;;;;1.90;1.80;;;;;;;18.13;64.02;99675.48;220099;1255;141040;-71
2023/08/09 11:47:08;;;;;;;5.40;1.80;;;;;;;17.80;64.09;99688.80;219365;1257;140739;-69
2023/08/09 11:52:16;;;;;;;1.40;0.90;;;;;;;17.49;64.31;99705.41;219184;1256;140191;-73
2023/08/09 11:57:21;;;;;;;2.30;1.30;;;;;;;17.12;64.19;99723.38;219998;1256;139690;-68
2023/08/09 12:02:29;;;;;;;2.90;1.10;;;;;;;16.88;65.06;99728.45;218143;1256;141708;-71
2023/08/09 12:07:39;;;;;;;1.50;1.00;;;;;;;16.69;65.63;99728.25;218809;1257;140137;-71
2023/08/09 12:12:44;;;;;;;1.80;1.20;;;;;;;16.59;65.88;99726.91;219363;1259;140467;-69
2023/08/09 12:17:50;;;;;;;1.70;1.10;;;;;;;16.52;66.32;99727.90;220227;1257;141570;-69
2023/08/09 12:22:57;;;;;;;2.00;0.90;;;;;;;16.58;67.09;99721.05;220509;1257;140968;-69
2023/08/09 12:28:03;;;;;;;3.70;1.30;;;;;;;16.70;67.24;99714.69;219722;1257;141220;-69
2023/08/09 12:33:09;;;;;;;1.20;1.10;;;;;;;16.88;67.65;99719.73;219694;1259;140455;-68
2023/08/09 12:38:15;;;;;;;4.60;1.50;;;;;;;17.04;67.76;99719.98;220346;1257;140383;-69
2023/08/09 12:43:21;;;;;;;4.10;1.40;;;;;;;17.19;67.70;99717.99;217753;1257;140398;-68
2023/08/09 12:48:26;;;;;;;4.30;1.10;;;;;;;17.26;67.72;99719.48;218897;1257;140794;-68
2023/08/09 12:53:32;;;;;;;3.70;1.30;;;;;;;17.28;67.59;99718.38;218852;1259;141907;-69
2023/08/09 12:58:39;;;;;;;1.70;1.30;;;;;;;17.35;68.00;99712.47;218677;1259;141117;-70
2023/08/09 13:03:45;;;;;;;1.60;1.50;;;;;;;17.43;68.13;99714.40;218658;1259;141368;-72
2023/08/09 13:08:52;;;;;;;4.80;1.40;;;;;;;17.48;68.17;99711.55;217422;1259;139924;-68
2023/08/09 13:13:58;;;;;;;1.10;1.10;;;;;;;17.42;67.80;99708.80;218739;1257;140384;-68
2023/08/09 13:19:05;;;;;;;3.70;2.30;;;;;;;17.33;68.09;99713.51;218190;1259;140901;-67
2023/08/09 13:24:10;;;;;;;2.20;1.30;;;;;;;17.36;68.31;99709.34;217709;1259;140167;-69
2023/08/09 13:29:16;;;;;;;1.90;1.20;;;;;;;17.51;68.50;99711.05;218195;1257;140432;-70
2023/08/09 13:34:21;;;;;;;;;;;;;;;17.66;68.53;99705.37;218184;1256;140658;-67
2023/08/09 13:39:26;;;;;;;1.40;1.30;;;;;;;17.78;68.51;99703.64;218285;1256;126591;-69
2023/08/09 13:44:33;;;;;;;2.10;1.60;;;;;;;17.92;68.20;99702.13;217833;1257;140678;-71
2023/08/09 13:49:38;;;;;;;13.50;2.50;;;;;;;18.08;68.08;99699.22;219375;1259;140757;-71
2023/08/09 13:54:44;;;;;;;3.10;1.80;;;;;;;18.26;68.07;99705.20;217741;1259;139958;-69
2023/08/09 13:59:51;;;;;;;2.80;1.70;;;;;;;18.40;68.05;99705.20;218978;1257;139821;-69
2023/08/09 14:04:57;;;;;;;2.00;1.90;;;;;;;18.56;67.76;99711.98;218745;1257;140838;-70
2023/08/09 14:10:02;;;;;;;4.50;1.80;;;;;;;18.63;67.37;99711.39;218765;1259;140813;-69
2023/08/09 14:15:09;;;;;;;2.30;2.00;;;;;;;18.70;66.84;99708.94;218734;1257;140799;-73
2023/08/09 14:20:19;;;;;;;1.80;1.70;;;;;;;18.60;66.83;99710.40;219309;1257;140345;-68
2023/08/09 14:25:27;;;;;;;1.60;1.40;;;;;;;18.54;67.02;99714.51;220287;1256;140339;-70
2023/08/09 14:30:33;;;;;;;4.00;1.50;;;;;;;18.57;67.20;99712.95;218770;1259;141021;-70
2023/08/09 14:35:38;;;;;;;6.20;2.30;;;;;;;18.63;66.70;99715.23;219428;1257;140113;-71
2023/08/09 14:40:46;;;;;;;1.90;1.40;;;;;;;18.78;66.82;99721.73;220034;1257;139824;-70
2023/08/09 14:45:52;;;;;;;2.20;1.60;;;;;;;18.97;66.43;99721.81;219489;1259;140172;-69
2023/08/09 14:50:57;;;;;;;2.40;1.80;;;;;;;18.70;65.72;99722.59;218950;1260;140358;-70
2023/08/09 14:56:02;;;;;;;2.80;1.80;;;;;;;18.64;66.13;99721.21;218277;1259;140728;-70
2023/08/09 15:01:08;;;;;;;3.40;2.60;;;;;;;18.71;66.43;99723.92;218056;1258;1145306;-69
2023/08/09 15:06:15;;;;;;;2.50;2.30;;;;;;;18.65;66.41;99726.31;218334;1260;140118;-69
2023/08/09 15:11:19;;;;;;;3.10;2.00;;;;;;;18.47;66.10;99736.27;217367;1260;139730;-69
2023/08/09 15:16:23;;;;;;;2.50;1.90;;;;;;;18.37;66.97;99737.55;218957;1257;141380;-69
2023/08/09 15:21:27;;;;;;;3.10;1.80;;;;;;;18.31;67.38;99743.80;218054;1258;139719;-68
2023/08/09 15:26:31;;;;;;;4.20;2.20;;;;;;;18.21;67.20;99753.92;219144;1257;140776;-69
2023/08/09 15:31:37;;;;;;;1.80;1.70;;;;;;;18.06;67.17;99762.84;218242;1260;141007;-69
2023/08/09 15:36:42;;;;;;;2.00;1.20;;;;;;;17.92;67.64;99765.77;218196;1260;140764;-68
2023/08/09 15:41:46;;;;;;;1.90;1.40;;;;;;;17.87;67.88;99767.59;218901;1258;139852;-68
2023/08/09 15:46:50;;;;;;;3.30;1.70;;;;;;;17.83;68.36;99769.71;218497;1261;139696;-68
2023/08/09 15:51:55;;;;;;;4.70;1.60;;;;;;;17.85;68.66;99776.94;218712;1257;140976;-71
2023/08/09 15:56:59;;;;;;;2.30;2.00;;;;;;;17.87;68.58;99780.70;218118;1257;139682;-70
2023/08/09 16:02:05;;;;;;;3.20;2.40;;;;;;;17.95;68.69;99785.39;219272;1257;141082;-70
2023/08/09 16:07:12;;;;;;;2.60;1.70;;;;;;;18.00;68.41;99787.66;218916;1258;140600;-71
2023/08/09 16:12:16;;;;;;;;;;;;;;;17.96;68.21;99786.94;220279;1257;141981;-69
2023/08/09 16:17:21;;;;;;;6.00;1.80;;;;;;;17.94;68.58;99784.91;220712;1257;146339;-69
2023/08/09 16:22:26;;;;;;;2.90;2.10;;;;;;;17.89;68.21;99783.10;220371;1257;142189;-71
2023/08/09 16:27:32;;;;;;;10.80;2.50;;;;;;;17.84;68.44;99786.91;219204;1257;140417;-69
2023/08/09 16:32:37;;;;;;;64.70;8.50;;;;;;;17.76;68.65;99794.20;219586;1257;140455;-66
2023/08/09 16:37:42;;;;;;;3.40;1.90;;;;;;;17.63;68.78;99800.10;218880;1257;140948;-65
2023/08/09 16:42:46;;;;;;;2.30;1.90;;;;;;;17.44;68.78;99809.36;219660;1257;139579;-66
2023/08/09 16:47:52;;;;;;;2.30;1.90;;;;;;;17.20;69.00;99815.55;218356;1257;140869;-66
2023/08/09 16:52:57;;;;;;;5.00;2.10;;;;;;;17.11;69.61;99818.52;218048;1258;139848;-68
2023/08/09 16:58:01;;;;;;;1.90;1.70;;;;;;;17.04;70.20;99825.92;219090;1257;140996;-66
2023/08/09 17:03:06;;;;;;;2.00;1.50;;;;;;;16.95;70.46;99826.05;219124;1257;140188;-67
2023/08/09 17:08:11;;;;;;;2.50;2.20;;;;;;;16.82;70.62;99830.89;217479;1257;140347;-70
2023/08/09 17:13:16;;;;;;;4.00;2.20;;;;;;;16.70;71.01;99822.25;217822;1259;235944;-69
2023/08/09 17:18:20;;;;;;;2.10;1.90;;;;;;;16.62;71.57;99817.73;217961;1257;235240;-69
2023/08/09 17:23:24;;;;;;;14.90;2.80;;;;;;;16.52;71.81;99817.30;219081;1257;139700;-70
2023/08/09 17:28:31;;;;;;;2.20;2.00;;;;;;;16.43;72.19;99823.35;217772;1257;139997;-69
2023/08/09 17:33:46;;;;;;;2.60;2.10;;;;;;;16.37;72.80;99829.10;218345;1257;141873;-70
2023/08/09 17:38:57;;;;;;;3.60;2.00;;;;;;;16.29;72.83;99838.30;218488;1257;139948;-69
2023/08/09 17:44:07;;;;;;;2.50;2.10;;;;;;;16.21;73.16;99846.11;219125;1257;139830;-69
2023/08/09 17:49:28;;;;;;;2.10;1.80;;;;;;;16.12;73.70;99852.40;218533;1257;139750;-70
2023/08/09 17:54:36;;;;;;;5.40;2.70;;;;;;;16.08;73.98;99856.80;218528;1257;140131;-69
2023/08/09 17:59:41;;;;;;;7.80;2.50;;;;;;;16.03;74.03;99859.22;219820;1257;140428;-70
2023/08/09 18:04:45;;;;;;;2.30;2.20;;;;;;;15.95;74.11;99867.27;220095;1256;141759;-65
2023/08/09 18:09:50;;;;;;;6.60;1.90;;;;;;;15.84;74.16;99872.96;219014;1257;141426;-70
2023/08/09 18:14:56;;;;;;;1.80;1.70;;;;;;;15.72;74.15;99880.93;220367;1258;140480;-69
2023/08/09 18:20:05;;;;;;;2.70;1.90;;;;;;;15.61;74.25;99890.84;218705;1257;140786;-71
2023/08/09 18:25:10;;;;;;;10.30;2.70;;;;;;;15.49;74.59;99896.95;218524;1257;142737;-69
2023/08/09 18:30:14;;;;;;;1.70;1.60;;;;;;;15.30;74.48;99908.15;219943;1257;141698;-69
2023/08/09 18:35:19;;;;;;;4.20;2.20;;;;;;;14.97;74.66;99913.66;218889;1257;142270;-68
2023/08/09 18:40:24;;;;;;;9.90;2.60;;;;;;;14.78;75.32;99917.35;218790;1256;140875;-66
2023/08/09 18:45:28;;;;;;;4.40;2.80;;;;;;;14.70;75.53;99931.19;219067;1256;140718;-67
2023/08/09 18:50:33;;;;;;;3.70;3.00;;;;;;;14.63;75.81;99932.53;218280;1257;139886;-67
2023/08/09 18:55:37;;;;;;;4.70;2.40;;;;;;;14.54;76.06;99934.29;218097;1259;154284;-67
2023/08/09 19:00:41;;;;;;;2.40;2.10;;;;;;;14.38;75.93;99937.34;219043;1256;140066;-69
2023/08/09 19:05:47;;;;;;;2.70;2.40;;;;;;;14.14;76.16;99941.77;217792;1256;139955;-67
2023/08/09 19:10:52;;;;;;;2.80;2.40;;;;;;;13.96;76.42;99952.57;217988;1257;140644;-71
2023/08/09 19:15:56;;;;;;;4.20;2.50;;;;;;;13.81;76.68;99953.84;218447;1256;142386;-66
2023/08/09 19:21:03;;;;;;;2.00;1.90;;;;;;;13.74;76.83;99959.29;218726;1257;140063;-67
2023/08/09 19:26:06;;;;;;;4.20;2.00;;;;;;;13.66;76.82;99961.27;218243;1257;139690;-69
2023/08/09 19:31:12;;;;;;;5.10;3.40;;;;;;;13.50;76.93;99966.90;217882;1259;140096;-69
2023/08/09 19:36:16;;;;;;;3.20;2.40;;;;;;;13.42;77.49;99966.83;218218;1256;141106;-68
2023/08/09 19:41:19;;;;;;;8.60;3.10;;;;;;;13.28;77.22;99966.51;219551;1256;141059;-67
2023/08/09 19:46:23;;;;;;;3.20;3.00;;;;;;;13.21;77.73;99975.60;219107;1256;140483;-68
2023/08/09 19:51:28;;;;;;;3.20;2.80;;;;;;;13.20;77.79;99983.02;218608;1255;139865;-69
2023/08/09 19:56:33;;;;;;;3.10;2.90;;;;;;;13.15;77.77;99985.36;217416;1260;141614;-68
2023/08/09 20:01:37;;;;;;;6.70;3.00;;;;;;;13.06;77.64;99985.05;218627;1256;139912;-68
2023/08/09 20:06:41;;;;;;;3.40;3.20;;;;;;;12.94;77.53;99987.77;220036;1257;140465;-69
2023/08/09 20:11:45;;;;;;;3.50;3.20;;;;;;;12.79;77.71;99990.48;220012;1257;142026;-68
2023/08/09 20:16:52;;;;;;;4.40;2.80;;;;;;;12.65;77.58;99991.23;220463;1255;141306;-67
2023/08/09 20:21:59;;;;;;;7.40;3.00;;;;;;;12.47;77.34;99989.55;220420;1255;140719;-67
2023/08/09 20:27:04;;;;;;;8.90;3.80;;;;;;;12.39;77.97;100003.42;217831;1257;139916;-67
2023/08/09 20:32:10;;;;;;;8.10;4.10;;;;;;;12.40;78.26;100008.89;217909;1256;140982;-68
2023/08/09 20:37:15;;;;;;;3.50;3.00;;;;;;;12.37;78.35;100012.36;218226;1257;141396;-68
2023/08/09 20:42:20;;;;;;;6.60;3.60;;;;;;;12.32;78.45;100015.59;218690;1256;140594;-71
2023/08/09 20:47:23;;;;;;;5.70;3.50;;;;;;;12.26;78.86;100018.73;218667;1257;141006;-67
2023/08/09 20:52:28;;;;;;;4.50;3.40;;;;;;;12.17;78.44;100022.80;218549;1257;142202;-70
2023/08/09 20:57:32;;;;;;;3.30;3.00;;;;;;;12.01;78.46;100023.05;218069;1257;139852;-68
2023/08/09 21:02:37;;;;;;;6.50;5.30;;;;;;;11.90;78.92;100022.74;218205;1256;141564;-69
2023/08/09 21:07:41;;;;;;;6.00;4.20;;;;;;;11.87;79.23;100029.14;218467;1256;142207;-70
2023/08/09 21:12:45;;;;;;;6.80;3.90;;;;;;;11.83;79.13;100035.73;218356;1259;140898;-68
2023/08/09 21:17:49;;;;;;;7.10;4.40;;;;;;;11.74;78.97;100037.23;218304;1256;140352;-70
2023/08/09 21:22:53;;;;;;;6.10;5.30;;;;;;;11.68;79.13;100043.29;219481;1257;141041;-68
2023/08/09 21:28:00;;;;;;;7.50;5.40;;;;;;;11.67;79.41;100048.48;217979;1259;141098;-69
2023/08/09 21:33:07;;;;;;;6.80;6.10;;;;;;;11.66;79.62;100052.45;219584;1257;141281;-68
2023/08/09 21:38:16;;;;;;;8.10;6.30;;;;;;;11.64;80.03;100057.87;219085;1256;141332;-68
2023/08/09 21:43:20;;;;;;;6.50;5.70;;;;;;;11.64;80.29;100057.50;218980;1256;141148;-69
2023/08/09 21:48:25;;;;;;;7.50;6.60;;;;;;;11.69;80.23;100061.34;219289;1255;140748;-69
2023/08/09 21:53:28;;;;;;;9.40;7.00;;;;;;;11.72;80.57;100060.19;219606;1256;141750;-70
2023/08/09 21:58:32;;;;;;;7.70;6.40;;;;;;;11.70;80.56;100063.09;219961;1256;140830;-69
2023/08/09 22:03:36;;;;;;;11.70;6.70;;;;;;;11.68;80.22;100064.00;219555;1257;141176;-70
2023/08/09 22:08:40;;;;;;;7.80;6.80;;;;;;;11.64;80.39;100062.73;220336;1256;141167;-68
2023/08/09 22:13:44;;;;;;;11.10;7.70;;;;;;;11.61;80.69;100061.39;220422;1256;140310;-68
2023/08/09 22:18:48;;;;;;;6.60;5.10;;;;;;;11.62;80.78;100066.54;220366;1255;141431;-70
2023/08/09 22:23:54;;;;;;;6.10;5.40;;;;;;;11.55;80.32;100066.81;219477;1256;141350;-68
2023/08/09 22:28:59;;;;;;;7.30;6.40;;;;;;;11.48;80.65;100070.39;218739;1256;140104;-68
2023/08/09 22:34:04;;;;;;;20.40;7.80;;;;;;;11.50;81.03;100074.98;219975;1256;140416;-68
2023/08/09 22:39:11;;;;;;;6.70;6.10;;;;;;;11.50;80.98;100076.36;218717;1256;140832;-66
2023/08/09 22:44:16;;;;;;;6.90;6.00;;;;;;;11.51;81.27;100077.18;218758;1257;140616;-70
2023/08/09 22:49:21;;;;;;;5.90;5.10;;;;;;;11.46;80.91;100081.98;219667;1256;142130;-69
2023/08/09 22:54:27;;;;;;;6.90;6.20;;;;;;;11.36;81.00;100083.50;218290;1257;139923;-71
2023/08/09 22:59:32;;;;;;;7.50;6.80;;;;;;;11.30;81.45;100090.11;217875;1259;140734;-69
2023/08/09 23:04:37;;;;;;;6.70;6.00;;;;;;;11.31;81.63;100085.69;218961;1257;140195;-68
2023/08/09 23:09:43;;;;;;;11.80;5.30;;;;;;;11.30;81.74;100089.20;219072;1256;140308;-67
2023/08/09 23:14:48;;;;;;;5.60;5.10;;;;;;;11.25;81.73;100092.48;218238;1257;140620;-67
2023/08/09 23:19:54;;;;;;;7.60;6.80;;;;;;;11.22;82.03;100096.77;218574;1256;139988;-70
2023/08/09 23:25:00;;;;;;;6.80;5.90;;;;;;;11.22;81.93;100098.48;218109;1259;140969;-67